createdAt,value
2022-12-04T00:00:34.102Z,0.04
2022-12-04T00:06:02.181Z,0.07
2022-12-04T00:11:06.787Z,0.08
2022-12-04T00:16:13.715Z,0.10
2022-12-04T00:21:18.283Z,0.12
2022-12-04T00:26:24.260Z,0.13
2022-12-04T00:31:30.105Z,0.14
2022-12-04T00:36:32.935Z,0.17
2022-12-04T00:41:35.899Z,0.18
2022-12-04T00:46:38.642Z,0.18
2022-12-04T00:51:41.388Z,0.19
2022-12-04T00:56:44.242Z,0.21
2022-12-04T01:01:46.964Z,0.25
2022-12-04T01:06:49.723Z,0.27
2022-12-04T01:11:52.454Z,0.29
2022-12-04T01:16:55.234Z,0.31
2022-12-04T01:21:58.155Z,0.31
2022-12-04T01:27:01.054Z,0.33
2022-12-04T01:32:04.522Z,0.34
2022-12-04T01:37:07.551Z,0.36
2022-12-04T01:42:17.628Z,0.37
2022-12-04T01:47:20.451Z,0.40
2022-12-04T01:52:25.301Z,0.40
2022-12-04T01:57:32.713Z,0.38
2022-12-04T02:02:39.173Z,0.36
2022-12-04T02:07:44.994Z,0.37
2022-12-04T02:12:56.990Z,0.39
2022-12-04T02:18:14.958Z,0.42
2022-12-04T02:23:29.832Z,0.43
2022-12-04T02:28:45.332Z,0.45
2022-12-04T02:34:24.364Z,0.47
2022-12-04T02:39:45.719Z,0.50
2022-12-04T02:44:57.221Z,0.51
2022-12-04T02:50:05.344Z,0.52
2022-12-04T02:55:21.112Z,0.53
2022-12-04T03:00:24.361Z,0.52
2022-12-04T03:05:41.029Z,0.53
2022-12-04T03:10:49.418Z,0.56
2022-12-04T03:16:24.607Z,0.57
2022-12-04T03:21:32.843Z,0.56
2022-12-04T03:26:46.997Z,0.56
2022-12-04T03:32:04.941Z,0.55
2022-12-04T03:37:12.765Z,0.54
2022-12-04T03:42:33.467Z,0.55
2022-12-04T03:47:42.845Z,0.59
2022-12-04T03:52:49.934Z,0.64
2022-12-04T03:58:03.541Z,0.66
2022-12-04T04:03:20.888Z,0.66
2022-12-04T04:08:27.754Z,0.64
2022-12-04T04:14:00.056Z,0.64
2022-12-04T04:19:22.569Z,0.63
2022-12-04T04:24:31.959Z,0.60
2022-12-04T04:29:34.753Z,0.58
2022-12-04T04:34:54.651Z,0.56
2022-12-04T04:40:15.681Z,0.52
2022-12-04T04:45:26.879Z,0.47
2022-12-04T04:50:32.454Z,0.46
2022-12-04T04:55:37.175Z,0.44
2022-12-04T05:00:41.531Z,0.42
2022-12-04T05:05:44.240Z,0.41
2022-12-04T05:10:47.010Z,0.40
2022-12-04T05:16:00.725Z,0.39
2022-12-04T05:21:08.285Z,0.39
2022-12-04T05:26:11.088Z,0.39
2022-12-04T05:31:13.871Z,0.37
2022-12-04T05:36:16.810Z,0.37
2022-12-04T05:41:19.613Z,0.38
2022-12-04T05:46:22.752Z,0.38
2022-12-04T05:51:25.525Z,0.39
2022-12-04T05:56:28.826Z,0.40
2022-12-04T06:01:31.645Z,0.41
2022-12-04T06:06:34.745Z,0.43
2022-12-04T06:11:39.800Z,0.43
2022-12-04T06:16:45.979Z,0.44
2022-12-04T06:21:52.571Z,0.45
2022-12-04T06:32:22.648Z,0.48
2022-12-04T06:37:25.715Z,0.50
2022-12-04T06:42:28.504Z,0.50
2022-12-04T06:47:31.458Z,0.50
2022-12-04T06:52:34.380Z,0.50
2022-12-04T06:57:37.173Z,0.53
2022-12-04T07:02:40.667Z,0.57
2022-12-04T07:07:43.561Z,0.59
2022-12-04T07:12:46.495Z,0.61
2022-12-04T07:17:49.259Z,0.64
2022-12-04T07:22:52.202Z,0.67
2022-12-04T07:27:55.317Z,0.71
2022-12-04T07:32:58.038Z,0.73
2022-12-04T07:38:00.811Z,0.77
2022-12-04T07:43:03.614Z,0.81
2022-12-04T07:48:06.688Z,0.84
2022-12-04T07:53:09.451Z,0.85
2022-12-04T07:58:12.221Z,0.87
2022-12-04T08:03:14.960Z,0.88
2022-12-04T08:08:17.812Z,0.89
2022-12-04T08:13:20.755Z,0.87
2022-12-04T08:18:23.633Z,0.87
2022-12-04T08:23:26.374Z,0.89
2022-12-04T08:28:29.545Z,0.93
2022-12-04T08:33:33.394Z,0.97
2022-12-04T08:38:36.971Z,0.99
2022-12-04T08:43:39.992Z,1.00
2022-12-04T08:48:43.309Z,1.02
2022-12-04T08:53:46.472Z,1.05
2022-12-04T08:58:49.650Z,1.05
2022-12-04T09:03:52.906Z,1.05
2022-12-04T09:08:57.176Z,1.06
2022-12-04T09:14:01.828Z,1.08
2022-12-04T09:19:04.628Z,1.10
2022-12-04T09:24:07.434Z,1.14
2022-12-04T09:29:11.683Z,1.16
2022-12-04T09:34:14.465Z,1.16
2022-12-04T09:39:17.370Z,1.17
2022-12-04T09:44:34.306Z,1.18
2022-12-04T09:49:40.892Z,1.18
2022-12-04T09:54:45.022Z,1.17
2022-12-04T09:59:49.357Z,1.18
2022-12-04T10:04:52.129Z,1.18
2022-12-04T10:10:28.137Z,1.19
2022-12-04T10:15:43.930Z,1.17
2022-12-04T10:21:02.731Z,1.15
2022-12-04T10:26:14.948Z,1.12
2022-12-04T10:31:18.173Z,1.12
2022-12-04T10:36:26.924Z,1.14
2022-12-04T10:41:48.034Z,1.14
2022-12-04T10:46:56.203Z,1.13
2022-12-04T10:51:59.008Z,1.13
2022-12-04T10:57:06.051Z,1.13
2022-12-04T11:02:11.880Z,1.17
2022-12-04T11:07:27.976Z,1.20
2022-12-04T11:12:32.446Z,1.22
2022-12-04T11:17:35.199Z,1.23
2022-12-04T11:22:51.407Z,1.24
2022-12-04T11:27:56.876Z,1.23
2022-12-04T11:33:01.005Z,1.20
2022-12-04T11:38:17.652Z,1.19
2022-12-04T11:43:21.734Z,1.20
2022-12-04T11:48:25.293Z,1.18
2022-12-04T11:53:48.260Z,1.19
2022-12-04T11:58:54.334Z,1.24
2022-12-04T12:04:23.309Z,1.29
2022-12-04T12:09:55.984Z,1.28
2022-12-04T12:15:04.982Z,1.28
2022-12-04T12:20:37.291Z,1.30
2022-12-04T12:25:51.675Z,1.32
2022-12-04T12:31:22.376Z,1.33
2022-12-04T12:36:31.577Z,1.35
2022-12-04T12:41:43.490Z,1.36
2022-12-04T12:46:51.634Z,1.35
2022-12-04T12:52:07.211Z,1.34
2022-12-04T12:57:20.566Z,1.31
2022-12-04T13:02:29.387Z,1.30
2022-12-04T13:07:58.990Z,1.29
2022-12-04T13:13:26.126Z,1.28
2022-12-04T13:18:55.433Z,1.27
2022-12-04T13:23:58.054Z,1.26
2022-12-04T13:29:19.771Z,1.24
2022-12-04T13:34:47.464Z,1.21
2022-12-04T13:40:09.310Z,1.18
2022-12-04T13:45:26.227Z,1.15
2022-12-04T13:50:30.677Z,1.13
2022-12-04T13:55:36.961Z,1.13
2022-12-04T14:00:45.232Z,1.11
2022-12-04T14:05:48.644Z,1.10
2022-12-04T14:11:06.671Z,1.10
2022-12-04T14:16:22.900Z,1.10
2022-12-04T14:21:26.228Z,1.10
2022-12-04T14:26:55.824Z,1.10
2022-12-04T14:31:59.540Z,1.11
2022-12-04T14:37:05.208Z,1.10
2022-12-04T14:42:22.401Z,1.07
2022-12-04T14:47:52.927Z,1.06
2022-12-04T14:53:23.689Z,1.04
2022-12-04T14:58:30.367Z,1.04
2022-12-04T15:03:43.665Z,1.03
2022-12-04T15:08:52.697Z,1.01
2022-12-04T15:14:11.751Z,1.01
2022-12-04T15:19:21.960Z,1.02
2022-12-04T15:24:25.132Z,1.02
2022-12-04T15:29:31.637Z,1.02
2022-12-04T15:34:48.227Z,1.00
2022-12-04T15:39:52.776Z,1.00
2022-12-04T15:45:22.029Z,1.00
2022-12-04T15:50:28.075Z,0.99
2022-12-04T15:55:39.591Z,0.99
2022-12-04T16:00:44.145Z,1.00
2022-12-04T16:05:48.544Z,1.01
2022-12-04T16:11:22.713Z,1.01
2022-12-04T16:16:25.563Z,0.99
2022-12-04T16:21:31.590Z,0.97
2022-12-04T16:26:34.498Z,0.94
2022-12-04T16:31:38.729Z,0.92
2022-12-04T16:36:42.552Z,0.90
2022-12-04T16:41:45.355Z,0.89
2022-12-04T16:46:50.647Z,0.88
2022-12-04T16:51:53.624Z,0.88
2022-12-04T16:56:56.409Z,0.88
2022-12-04T17:02:00.179Z,0.87
2022-12-04T17:07:03.051Z,0.86
2022-12-04T17:12:05.827Z,0.87
2022-12-04T17:17:08.670Z,0.87
2022-12-04T17:22:13.606Z,0.84
2022-12-04T17:27:16.406Z,0.80
2022-12-04T17:32:19.334Z,0.78
2022-12-04T17:37:22.089Z,0.76
2022-12-04T17:42:24.915Z,0.74
2022-12-04T17:47:28.091Z,0.74
2022-12-04T17:52:31.338Z,0.74
2022-12-04T17:57:34.355Z,0.74
2022-12-04T18:02:37.715Z,0.75
2022-12-04T18:07:40.721Z,0.75
2022-12-04T18:12:43.674Z,0.76
2022-12-04T18:17:46.409Z,0.74
2022-12-04T18:22:49.172Z,0.73
2022-12-04T18:27:52.177Z,0.71
2022-12-04T18:32:55.391Z,0.70
2022-12-04T18:37:58.189Z,0.70
2022-12-04T18:43:01.096Z,0.68
2022-12-04T18:48:03.901Z,0.69
2022-12-04T18:53:07.001Z,0.70
2022-12-04T18:58:10.625Z,0.73
2022-12-04T19:03:13.424Z,0.73
2022-12-04T19:08:17.161Z,0.74
2022-12-04T19:13:19.984Z,0.71
2022-12-04T19:18:22.676Z,0.66
2022-12-04T19:23:25.444Z,0.61
2022-12-04T19:28:28.670Z,0.57
2022-12-04T19:33:31.566Z,0.55
2022-12-04T19:38:34.426Z,0.53
2022-12-04T19:43:43.796Z,0.53
2022-12-04T19:48:47.554Z,0.53
2022-12-04T19:53:50.427Z,0.52
2022-12-04T19:58:54.891Z,0.51
2022-12-04T20:04:00.240Z,0.49
2022-12-04T20:09:06.657Z,0.46
2022-12-04T20:14:10.344Z,0.44
2022-12-04T20:19:15.928Z,0.43
2022-12-04T20:24:18.731Z,0.44
2022-12-04T20:29:21.843Z,0.46
2022-12-04T20:34:24.653Z,0.46
2022-12-04T20:39:28.289Z,0.46
2022-12-04T20:44:31.236Z,0.45
2022-12-04T20:49:34.274Z,0.46
2022-12-04T20:54:41.303Z,0.48
2022-12-04T20:59:44.588Z,0.47
2022-12-04T21:04:47.390Z,0.48
2022-12-04T21:09:50.190Z,0.48
2022-12-04T21:15:11.618Z,0.47
2022-12-04T21:20:14.540Z,0.45
2022-12-04T21:25:17.779Z,0.42
2022-12-04T21:30:20.650Z,0.40
2022-12-04T21:35:23.452Z,0.39
2022-12-04T21:40:26.235Z,0.38
2022-12-04T21:45:28.918Z,0.39
2022-12-04T21:50:31.732Z,0.36
2022-12-04T21:55:34.551Z,0.33
2022-12-04T22:00:38.385Z,0.31
2022-12-04T22:05:42.626Z,0.30
2022-12-04T22:10:47.464Z,0.29
2022-12-04T22:15:50.225Z,0.27
2022-12-04T22:20:53.464Z,0.28
2022-12-04T22:25:56.280Z,0.28
2022-12-04T22:31:06.901Z,0.25
2022-12-04T22:36:12.942Z,0.24
2022-12-04T22:41:18.611Z,0.24
2022-12-04T22:46:21.435Z,0.24
2022-12-04T22:51:24.931Z,0.23
2022-12-04T22:56:30.267Z,0.24
2022-12-04T23:01:34.527Z,0.26
2022-12-04T23:06:37.614Z,0.28
2022-12-04T23:11:41.155Z,0.26
2022-12-04T23:16:44.799Z,0.25
2022-12-04T23:21:53.563Z,0.24
2022-12-04T23:26:58.059Z,0.22
2022-12-04T23:32:00.900Z,0.22
2022-12-04T23:37:03.763Z,0.23
2022-12-04T23:42:06.566Z,0.23
2022-12-04T23:47:09.370Z,0.21
2022-12-04T23:52:12.272Z,0.18
2022-12-04T23:57:14.950Z,0.17
